createdAt,value
2023-07-25T00:00:10.717Z,82.21
2023-07-25T00:01:10.762Z,82.51
2023-07-25T00:02:10.726Z,81.90
2023-07-25T00:03:10.691Z,82.81
2023-07-25T00:04:10.693Z,81.30
2023-07-25T00:05:10.666Z,79.48
2023-07-25T00:06:10.625Z,79.08
2023-07-25T00:07:10.630Z,78.97
2023-07-25T00:08:10.600Z,79.88
2023-07-25T00:09:10.602Z,80.90
2023-07-25T00:10:10.576Z,81.70
2023-07-25T00:11:10.594Z,81.10
2023-07-25T00:12:10.554Z,80.19
2023-07-25T00:13:10.544Z,79.38
2023-07-25T00:14:10.533Z,79.88
2023-07-25T00:15:10.548Z,79.38
2023-07-25T00:16:10.530Z,79.48
2023-07-25T00:17:10.491Z,79.28
2023-07-25T00:18:10.459Z,78.97
2023-07-25T00:19:10.488Z,77.76
2023-07-25T00:20:10.451Z,77.36
2023-07-25T00:21:10.463Z,77.66
2023-07-25T00:22:10.411Z,77.26
2023-07-25T00:23:10.505Z,75.74
2023-07-25T00:24:10.433Z,75.54
2023-07-25T00:25:10.391Z,75.64
2023-07-25T00:26:10.369Z,76.99
2023-07-25T00:27:10.374Z,76.39
2023-07-25T00:28:10.339Z,73.55
2023-07-25T00:29:10.449Z,72.85
2023-07-25T00:30:10.310Z,73.66
2023-07-25T00:31:10.358Z,73.86
2023-07-25T00:32:10.380Z,74.77
2023-07-25T00:33:10.535Z,75.48
2023-07-25T00:34:10.283Z,76.18
2023-07-25T00:35:10.261Z,75.98
2023-07-25T00:36:10.256Z,75.31
2023-07-25T00:37:10.216Z,76.32
2023-07-25T00:38:10.221Z,76.32
2023-07-25T00:39:10.238Z,75.01
2023-07-25T00:40:10.192Z,76.02
2023-07-25T00:41:10.766Z,75.41
2023-07-25T00:42:11.257Z,76.22
2023-07-25T00:43:11.922Z,75.51
2023-07-25T00:44:11.252Z,76.93
2023-07-25T00:45:12.092Z,76.52
2023-07-25T00:46:11.582Z,76.82
2023-07-25T00:47:11.814Z,76.02
2023-07-25T00:48:12.323Z,77.33
2023-07-25T00:49:11.761Z,76.22
2023-07-25T00:50:11.420Z,76.72
2023-07-25T00:51:11.861Z,77.53
2023-07-25T00:52:11.065Z,77.33
2023-07-25T00:53:11.376Z,79.75
2023-07-25T00:54:11.900Z,81.88
2023-07-25T00:55:11.780Z,79.75
2023-07-25T00:56:11.445Z,79.35
2023-07-25T00:57:11.774Z,79.96
2023-07-25T00:58:11.034Z,79.25
2023-07-25T00:59:10.958Z,78.24
2023-07-25T01:00:11.737Z,79.75
2023-07-25T01:01:12.343Z,78.24
2023-07-25T01:02:12.141Z,79.05
2023-07-25T01:03:11.297Z,78.44
2023-07-25T01:04:09.849Z,78.85
2023-07-25T01:05:09.851Z,81.48
2023-07-25T01:06:09.860Z,81.37
2023-07-25T01:07:11.581Z,82.69
2023-07-25T01:08:09.801Z,82.08
2023-07-25T01:09:09.789Z,82.28
2023-07-25T01:10:09.815Z,83.40
2023-07-25T01:11:09.788Z,80.46
2023-07-25T01:12:09.769Z,81.27
2023-07-25T01:13:09.762Z,81.68
2023-07-25T01:14:09.717Z,83.60
2023-07-25T01:15:09.727Z,82.99
2023-07-25T01:16:09.742Z,83.09
2023-07-25T01:17:09.693Z,84.41
2023-07-25T01:18:09.680Z,84.41
2023-07-25T01:19:09.663Z,84.20
2023-07-25T01:20:09.815Z,82.79
2023-07-25T01:21:09.642Z,81.98
2023-07-25T01:22:09.633Z,81.37
2023-07-25T01:23:09.602Z,81.07
2023-07-25T01:24:09.618Z,80.87
2023-07-25T01:25:09.598Z,79.75
2023-07-25T01:26:09.576Z,80.97
2023-07-25T01:27:09.556Z,81.78
2023-07-25T01:28:09.565Z,81.07
2023-07-25T01:29:09.539Z,80.66
2023-07-25T01:30:09.522Z,82.08
2023-07-25T01:31:09.505Z,81.68
2023-07-25T01:32:09.501Z,81.37
2023-07-25T01:33:09.486Z,79.96
2023-07-25T01:34:09.510Z,80.87
2023-07-25T01:35:09.468Z,81.88
2023-07-25T01:36:09.460Z,81.17
2023-07-25T01:37:09.445Z,79.96
2023-07-25T01:38:09.442Z,79.25
2023-07-25T01:39:09.444Z,78.85
2023-07-25T01:40:09.393Z,80.66
2023-07-25T01:41:09.418Z,79.96
2023-07-25T01:42:09.369Z,81.37
2023-07-25T01:43:09.366Z,80.77
2023-07-25T01:44:09.354Z,81.07
2023-07-25T01:45:09.327Z,79.96
2023-07-25T01:46:09.326Z,80.36
2023-07-25T01:47:09.296Z,80.66
2023-07-25T01:48:09.296Z,81.07
2023-07-25T01:49:09.260Z,80.77
2023-07-25T01:50:09.291Z,80.97
2023-07-25T01:51:09.243Z,80.57
2023-07-25T01:52:09.253Z,78.78
2023-07-25T01:53:09.239Z,77.97
2023-07-25T01:54:09.218Z,78.28
2023-07-25T01:55:09.185Z,78.48
2023-07-25T01:56:09.303Z,78.17
2023-07-25T01:57:09.204Z,79.29
2023-07-25T01:58:09.173Z,79.49
2023-07-25T01:59:09.149Z,78.78
2023-07-25T02:00:09.128Z,79.59
2023-07-25T02:01:09.220Z,81.65
2023-07-25T02:02:09.137Z,82.97
2023-07-25T02:03:09.133Z,82.36
2023-07-25T02:04:09.083Z,81.05
2023-07-25T02:05:09.075Z,80.34
2023-07-25T02:06:09.073Z,79.63
2023-07-25T02:07:09.044Z,80.13
2023-07-25T02:08:09.033Z,80.54
2023-07-25T02:09:09.008Z,80.54
2023-07-25T02:10:09.018Z,81.25
2023-07-25T02:11:08.994Z,81.49
2023-07-25T02:12:08.970Z,79.97
2023-07-25T02:13:09.212Z,79.87
2023-07-25T02:14:08.958Z,80.88
2023-07-25T02:15:08.952Z,79.87
2023-07-25T02:16:08.946Z,78.55
2023-07-25T02:17:08.992Z,78.45
2023-07-25T02:18:08.913Z,77.95
2023-07-25T02:19:08.892Z,77.64
2023-07-25T02:20:08.904Z,77.64
2023-07-25T02:21:08.850Z,77.84
2023-07-25T02:22:08.854Z,78.66
2023-07-25T02:23:08.913Z,78.45
2023-07-25T02:24:08.826Z,78.96
2023-07-25T02:25:08.837Z,78.75
2023-07-25T02:26:08.802Z,78.66
2023-07-25T02:27:08.785Z,78.96
2023-07-25T02:28:08.857Z,77.75
2023-07-25T02:29:08.756Z,78.35
2023-07-25T02:30:08.767Z,78.55
2023-07-25T02:31:08.783Z,78.96
2023-07-25T02:32:08.708Z,79.57
2023-07-25T02:33:08.718Z,80.78
2023-07-25T02:34:08.715Z,80.62
2023-07-25T02:35:08.700Z,79.91
2023-07-25T02:36:08.666Z,80.82
2023-07-25T02:37:08.875Z,79.40
2023-07-25T02:38:08.656Z,79.00
2023-07-25T02:39:08.625Z,78.89
2023-07-25T02:40:08.611Z,79.00
2023-07-25T02:41:08.641Z,80.41
2023-07-25T02:42:08.594Z,78.79
2023-07-25T02:43:08.589Z,78.39
2023-07-25T02:44:08.612Z,78.69
2023-07-25T02:45:08.543Z,79.20
2023-07-25T02:46:08.592Z,79.60
2023-07-25T02:47:08.519Z,79.40
2023-07-25T02:48:08.510Z,79.30
2023-07-25T02:49:08.564Z,79.10
2023-07-25T02:50:08.487Z,78.19
2023-07-25T02:51:08.487Z,78.08
2023-07-25T02:52:08.453Z,77.68
2023-07-25T02:53:08.444Z,76.77
2023-07-25T02:54:08.431Z,78.19
2023-07-25T02:55:08.448Z,79.71
2023-07-25T02:56:08.407Z,79.40
2023-07-25T02:57:08.403Z,78.39
2023-07-25T02:58:08.375Z,77.68
2023-07-25T02:59:08.357Z,77.28
2023-07-25T03:00:08.381Z,77.07
2023-07-25T03:01:08.365Z,77.64
2023-07-25T03:02:08.421Z,78.66
2023-07-25T03:03:08.336Z,79.97
2023-07-25T03:04:08.300Z,81.39
2023-07-25T03:05:08.287Z,80.78
2023-07-25T03:06:08.286Z,80.18
2023-07-25T03:07:08.284Z,82.10
2023-07-25T03:08:08.242Z,81.29
2023-07-25T03:09:08.215Z,81.18
2023-07-25T03:10:08.220Z,81.59
2023-07-25T03:11:08.228Z,80.07
2023-07-25T03:12:08.201Z,79.36
2023-07-25T03:13:08.170Z,80.58
2023-07-25T03:14:08.169Z,79.57
2023-07-25T03:15:08.143Z,77.75
2023-07-25T03:16:08.212Z,76.26
2023-07-25T03:17:08.145Z,75.72
2023-07-25T03:18:08.162Z,75.82
2023-07-25T03:19:08.103Z,75.92
2023-07-25T03:20:08.114Z,75.72
2023-07-25T03:21:08.113Z,75.31
2023-07-25T03:22:08.076Z,74.91
2023-07-25T03:23:08.164Z,75.92
2023-07-25T03:24:08.039Z,77.84
2023-07-25T03:25:08.057Z,80.07
2023-07-25T03:26:08.018Z,83.11
2023-07-25T03:27:07.994Z,85.33
2023-07-25T03:28:07.986Z,86.05
2023-07-25T03:29:07.961Z,86.25
2023-07-25T03:30:07.975Z,86.05
2023-07-25T03:31:08.051Z,86.45
2023-07-25T03:32:07.935Z,86.45
2023-07-25T03:33:07.937Z,86.85
2023-07-25T03:34:07.928Z,87.56
2023-07-25T03:35:07.887Z,87.26
2023-07-25T03:36:07.875Z,86.90
2023-07-25T03:37:07.869Z,87.40
2023-07-25T03:38:08.095Z,87.40
2023-07-25T03:39:07.859Z,87.81
2023-07-25T03:40:07.830Z,88.21
2023-07-25T03:41:07.810Z,88.11
2023-07-25T03:42:07.818Z,88.62
2023-07-25T03:43:07.781Z,87.51
2023-07-25T03:44:07.780Z,86.79
2023-07-25T03:45:07.754Z,86.59
2023-07-25T03:46:07.800Z,86.49
2023-07-25T03:47:07.738Z,86.79
2023-07-25T03:48:07.749Z,88.11
2023-07-25T03:49:07.743Z,89.02
2023-07-25T03:50:07.675Z,89.83
2023-07-25T03:51:07.663Z,90.24
2023-07-25T03:52:07.675Z,90.14
2023-07-25T03:53:08.033Z,89.73
2023-07-25T03:54:07.637Z,89.32
2023-07-25T03:55:07.630Z,88.42
2023-07-25T03:56:07.642Z,87.10
2023-07-25T03:57:07.596Z,88.21
2023-07-25T03:58:07.614Z,87.71
2023-07-25T03:59:07.595Z,87.00
2023-07-25T04:00:07.679Z,86.69
2023-07-25T04:01:07.571Z,87.71
2023-07-25T04:02:07.585Z,87.10
2023-07-25T04:03:14.957Z,86.33
2023-07-25T04:04:08.609Z,87.24
2023-07-25T04:05:07.713Z,88.66
2023-07-25T04:06:08.641Z,88.96
2023-07-25T04:07:10.123Z,88.15
2023-07-25T04:08:07.462Z,86.22
2023-07-25T04:09:08.934Z,86.22
2023-07-25T04:10:11.816Z,85.93
2023-07-25T04:11:13.648Z,84.91
2023-07-25T04:12:14.045Z,84.41
2023-07-25T04:13:10.409Z,83.69
2023-07-25T04:14:09.851Z,83.29
2023-07-25T04:15:14.383Z,83.59
2023-07-25T04:16:13.149Z,81.87
2023-07-25T04:17:07.343Z,81.87
2023-07-25T04:18:07.325Z,82.17
2023-07-25T04:19:07.318Z,81.37
2023-07-25T04:20:07.322Z,82.07
2023-07-25T04:21:07.322Z,82.84
2023-07-25T04:22:07.286Z,84.87
2023-07-25T04:23:07.259Z,84.56
2023-07-25T04:24:07.261Z,85.17
2023-07-25T04:25:07.247Z,86.39
2023-07-25T04:26:07.244Z,87.20
2023-07-25T04:27:07.206Z,86.19
2023-07-25T04:28:07.199Z,84.27
2023-07-25T04:29:07.372Z,82.14
2023-07-25T04:30:07.181Z,83.11
2023-07-25T04:31:07.158Z,82.70
2023-07-25T04:32:07.140Z,78.96
2023-07-25T04:33:07.135Z,80.24
2023-07-25T04:34:07.145Z,80.74
2023-07-25T04:35:07.116Z,81.71
2023-07-25T04:36:07.221Z,82.28
2023-07-25T04:37:07.083Z,83.80
2023-07-25T04:38:07.090Z,83.90
2023-07-25T04:39:07.066Z,82.99
2023-07-25T04:40:07.059Z,82.59
2023-07-25T04:41:07.021Z,82.55
2023-07-25T04:42:07.027Z,83.36
2023-07-25T04:43:06.998Z,84.37
2023-07-25T04:44:07.237Z,84.97
2023-07-25T04:45:06.985Z,84.67
2023-07-25T04:46:07.044Z,85.28
2023-07-25T04:47:06.952Z,85.58
2023-07-25T04:48:06.977Z,85.78
2023-07-25T04:49:06.990Z,85.78
2023-07-25T04:50:06.909Z,86.19
2023-07-25T04:51:06.900Z,86.29
2023-07-25T04:52:06.891Z,85.58
2023-07-25T04:53:06.882Z,84.97
2023-07-25T04:54:06.858Z,85.17
2023-07-25T04:55:06.834Z,85.34
2023-07-25T04:56:06.830Z,84.87
2023-07-25T04:57:06.865Z,83.96
2023-07-25T04:58:06.821Z,83.05
2023-07-25T04:59:06.792Z,83.26
2023-07-25T05:00:06.769Z,81.34
2023-07-25T05:01:06.848Z,79.32
2023-07-25T05:02:06.763Z,79.72
2023-07-25T05:03:06.875Z,78.97
2023-07-25T05:04:06.747Z,78.77
2023-07-25T05:05:06.708Z,77.46
2023-07-25T05:06:06.704Z,75.64
2023-07-25T05:07:06.712Z,74.53
2023-07-25T05:08:06.687Z,74.33
2023-07-25T05:09:06.803Z,75.24
2023-07-25T05:10:06.642Z,77.26
2023-07-25T05:11:06.660Z,78.47
2023-07-25T05:12:06.646Z,78.97
2023-07-25T05:13:06.599Z,79.08
2023-07-25T05:14:06.672Z,77.06
2023-07-25T05:15:06.583Z,76.25
2023-07-25T05:16:06.719Z,76.65
2023-07-25T05:17:06.561Z,76.15
2023-07-25T05:18:06.591Z,74.84
2023-07-25T05:19:06.531Z,78.13
2023-07-25T05:20:06.542Z,77.02
2023-07-25T05:21:06.542Z,77.12
2023-07-25T05:22:06.505Z,76.21
2023-07-25T05:23:06.488Z,75.81
2023-07-25T05:24:06.474Z,76.42
2023-07-25T05:25:06.498Z,77.93
2023-07-25T05:26:06.435Z,78.53
2023-07-25T05:27:06.421Z,79.54
2023-07-25T05:28:06.410Z,79.24
2023-07-25T05:29:06.515Z,80.96
2023-07-25T05:30:06.400Z,79.64
2023-07-25T05:31:06.386Z,80.76
2023-07-25T05:32:06.360Z,79.21
2023-07-25T05:33:06.383Z,80.01
2023-07-25T05:34:06.339Z,81.73
2023-07-25T05:35:06.339Z,81.93
2023-07-25T05:36:06.340Z,79.10
2023-07-25T05:37:06.310Z,77.66
2023-07-25T05:38:06.285Z,77.25
2023-07-25T05:39:06.292Z,77.45
2023-07-25T05:40:06.263Z,79.16
2023-07-25T05:41:06.257Z,77.95
2023-07-25T05:42:06.245Z,77.04
2023-07-25T05:43:06.223Z,78.02
2023-07-25T05:44:06.218Z,79.73
2023-07-25T05:45:06.193Z,80.54
2023-07-25T05:46:06.352Z,79.93
2023-07-25T05:47:06.173Z,79.60
2023-07-25T05:48:06.177Z,78.39
2023-07-25T05:49:08.318Z,77.88
2023-07-25T05:50:06.113Z,78.39
2023-07-25T05:51:06.133Z,77.38
2023-07-25T05:52:06.082Z,76.64
2023-07-25T05:53:06.232Z,76.54
2023-07-25T05:54:06.071Z,76.14
2023-07-25T05:55:06.058Z,74.93
2023-07-25T05:56:06.037Z,75.73
2023-07-25T05:57:06.034Z,76.20
2023-07-25T05:58:06.174Z,74.99
2023-07-25T05:59:06.013Z,75.09
2023-07-25T06:00:05.979Z,75.29
2023-07-25T06:01:06.001Z,76.26
2023-07-25T06:02:05.966Z,77.57
2023-07-25T06:03:06.095Z,77.03
2023-07-25T06:04:05.932Z,76.93
2023-07-25T06:05:05.918Z,76.49
2023-07-25T06:06:05.903Z,76.05
2023-07-25T06:07:05.910Z,76.72
2023-07-25T06:08:05.887Z,75.08
2023-07-25T06:09:05.875Z,73.37
2023-07-25T06:10:05.932Z,73.64
2023-07-25T06:11:05.843Z,74.44
2023-07-25T06:12:05.835Z,72.09
2023-07-25T06:13:05.880Z,72.09
2023-07-25T06:14:08.269Z,71.70
2023-07-25T06:15:05.932Z,71.46
2023-07-25T06:16:05.788Z,71.33
2023-07-25T06:17:05.845Z,71.50
2023-07-25T06:18:06.024Z,69.89
2023-07-25T06:19:05.734Z,70.06
2023-07-25T06:20:05.715Z,69.26
2023-07-25T06:21:05.746Z,69.53
2023-07-25T06:22:05.703Z,69.82
2023-07-25T06:23:05.716Z,67.82
2023-07-25T06:24:05.666Z,68.59
2023-07-25T06:25:05.674Z,68.09
2023-07-25T06:26:05.646Z,68.19
2023-07-25T06:27:05.743Z,66.49
2023-07-25T06:28:05.608Z,67.29
2023-07-25T06:29:05.633Z,67.89
2023-07-25T06:30:05.600Z,68.89
2023-07-25T06:31:05.673Z,66.42
2023-07-25T06:32:05.635Z,67.32
2023-07-25T06:33:05.600Z,67.22
2023-07-25T06:34:05.631Z,67.32
2023-07-25T06:35:05.540Z,67.93
2023-07-25T06:36:05.524Z,68.02
2023-07-25T06:37:05.518Z,67.22
2023-07-25T06:38:05.480Z,67.96
2023-07-25T06:39:05.623Z,65.66
2023-07-25T06:40:05.520Z,67.55
2023-07-25T06:41:05.485Z,67.86
2023-07-25T06:42:05.461Z,67.16
2023-07-25T06:43:05.428Z,65.95
2023-07-25T06:44:05.453Z,65.05
2023-07-25T06:45:05.427Z,65.45
2023-07-25T06:46:05.386Z,64.65
2023-07-25T06:47:05.437Z,64.06
2023-07-25T06:48:05.444Z,65.42
2023-07-25T06:49:06.076Z,65.52
2023-07-25T06:50:05.321Z,65.59
2023-07-25T06:51:05.536Z,63.79
2023-07-25T06:52:05.307Z,63.79
2023-07-25T06:53:05.308Z,64.16
2023-07-25T06:54:05.362Z,64.76
2023-07-25T06:55:05.293Z,65.56
2023-07-25T06:56:05.265Z,65.16
2023-07-25T06:57:05.233Z,64.76
2023-07-25T06:58:05.238Z,65.13
2023-07-25T06:59:05.352Z,64.73
2023-07-25T07:00:05.202Z,64.30
2023-07-25T07:01:05.196Z,63.30
2023-07-25T07:02:05.194Z,63.50
2023-07-25T07:03:05.276Z,62.50
2023-07-25T07:04:05.148Z,63.17
2023-07-25T07:05:19.300Z,63.67
2023-07-25T07:06:06.141Z,63.27
2023-07-25T07:07:05.102Z,62.57
2023-07-25T07:08:05.118Z,62.77
2023-07-25T07:09:05.076Z,62.45
2023-07-25T07:10:05.074Z,61.25
2023-07-25T07:11:05.158Z,61.25
2023-07-25T07:12:05.064Z,60.75
2023-07-25T07:13:05.011Z,59.92
2023-07-25T07:14:05.005Z,58.62
2023-07-25T07:15:05.029Z,59.92
2023-07-25T07:16:05.329Z,59.12
2023-07-25T07:17:05.007Z,60.29
2023-07-25T07:18:05.003Z,58.20
2023-07-25T07:19:04.970Z,57.97
2023-07-25T07:20:04.942Z,57.82
2023-07-25T07:21:05.198Z,56.72
2023-07-25T07:22:04.919Z,55.93
2023-07-25T07:23:04.888Z,56.55
2023-07-25T07:24:04.897Z,57.94
2023-07-25T07:25:04.901Z,57.94
2023-07-25T07:26:04.872Z,57.75
2023-07-25T07:27:04.840Z,56.48
2023-07-25T07:28:04.816Z,57.37
2023-07-25T07:29:04.824Z,56.30
2023-07-25T07:30:04.807Z,57.50
2023-07-25T07:31:04.960Z,58.40
2023-07-25T07:32:04.781Z,59.19
2023-07-25T07:33:04.779Z,59.52
2023-07-25T07:34:04.787Z,58.62
2023-07-25T07:35:04.758Z,58.23
2023-07-25T07:36:04.739Z,56.43
2023-07-25T07:37:04.748Z,58.62
2023-07-25T07:38:04.749Z,56.13
2023-07-25T07:39:04.697Z,55.83
2023-07-25T07:40:04.700Z,58.85
2023-07-25T07:41:04.671Z,58.65
2023-07-25T07:42:04.638Z,57.86
2023-07-25T07:43:04.630Z,58.45
2023-07-25T07:44:04.631Z,58.06
2023-07-25T07:45:04.618Z,58.72
2023-07-25T07:46:04.653Z,57.65
2023-07-25T07:47:04.601Z,58.15
2023-07-25T07:48:04.634Z,57.53
2023-07-25T07:49:04.566Z,57.33
2023-07-25T07:50:04.563Z,56.13
2023-07-25T07:51:04.521Z,58.23
2023-07-25T07:52:15.611Z,58.53
2023-07-25T07:53:05.508Z,57.73
2023-07-25T07:54:04.503Z,56.13
2023-07-25T07:55:04.497Z,57.33
2023-07-25T07:56:04.458Z,58.10
2023-07-25T07:57:04.508Z,57.90
2023-07-25T07:58:04.480Z,56.21
2023-07-25T07:59:04.469Z,56.10
2023-07-25T08:00:04.415Z,57.10
2023-07-25T08:01:04.430Z,57.70
2023-07-25T08:02:04.447Z,58.20
2023-07-25T08:03:04.495Z,57.10
2023-07-25T08:04:04.368Z,56.21
2023-07-25T08:05:04.401Z,58.00
2023-07-25T08:06:04.322Z,57.50
2023-07-25T08:07:04.332Z,57.10
2023-07-25T08:08:04.347Z,57.73
2023-07-25T08:09:04.288Z,56.33
2023-07-25T08:10:04.282Z,56.81
2023-07-25T08:11:04.294Z,56.40
2023-07-25T08:12:04.286Z,57.28
2023-07-25T08:13:04.272Z,57.32
2023-07-25T08:14:04.228Z,55.50
2023-07-25T08:15:04.218Z,55.67
2023-07-25T08:16:04.279Z,54.85
2023-07-25T08:17:04.207Z,54.50
2023-07-25T08:18:04.197Z,54.90
2023-07-25T08:19:04.184Z,52.12
2023-07-25T08:20:04.200Z,51.52
2023-07-25T08:21:04.136Z,50.43
2023-07-25T08:22:04.138Z,52.14
2023-07-25T08:23:04.116Z,52.96
2023-07-25T08:24:04.119Z,53.66
2023-07-25T08:25:04.083Z,52.69
2023-07-25T08:26:04.109Z,55.08
2023-07-25T08:27:04.074Z,53.71
2023-07-25T08:28:04.047Z,55.80
2023-07-25T08:29:04.068Z,55.73
2023-07-25T08:30:04.074Z,55.95
2023-07-25T08:31:04.038Z,56.45
2023-07-25T08:32:04.007Z,56.68
2023-07-25T08:33:04.037Z,56.18
2023-07-25T08:34:03.976Z,56.51
2023-07-25T08:35:04.036Z,57.63
2023-07-25T08:36:03.958Z,56.23
2023-07-25T08:37:03.938Z,57.65
2023-07-25T08:38:03.929Z,57.56
2023-07-25T08:39:03.937Z,57.78
2023-07-25T08:40:03.907Z,58.28
2023-07-25T08:41:03.907Z,57.61
2023-07-25T08:42:03.861Z,57.61
2023-07-25T08:43:03.916Z,57.41
2023-07-25T08:44:03.831Z,58.24
2023-07-25T08:45:03.858Z,58.24
2023-07-25T08:46:03.822Z,59.04
2023-07-25T08:47:03.852Z,60.53
2023-07-25T08:48:03.959Z,59.83
2023-07-25T08:49:03.841Z,59.83
2023-07-25T08:50:03.780Z,60.74
2023-07-25T08:51:03.785Z,57.64
2023-07-25T08:52:03.767Z,58.24
2023-07-25T08:53:03.724Z,60.63
2023-07-25T08:54:03.741Z,61.04
2023-07-25T08:55:03.716Z,58.24
2023-07-25T08:56:03.675Z,59.70
2023-07-25T08:57:03.782Z,60.41
2023-07-25T08:58:03.655Z,58.51
2023-07-25T08:59:03.670Z,58.38
2023-07-25T09:00:03.650Z,58.28
2023-07-25T09:01:03.620Z,57.98
2023-07-25T09:02:03.750Z,57.46
2023-07-25T09:03:03.674Z,59.15
2023-07-25T09:04:03.602Z,57.76
2023-07-25T09:05:03.605Z,58.36
2023-07-25T09:06:03.562Z,58.55
2023-07-25T09:07:03.543Z,58.65
2023-07-25T09:08:03.531Z,56.36
2023-07-25T09:09:03.500Z,58.75
2023-07-25T09:10:03.531Z,56.96
2023-07-25T09:11:03.483Z,57.15
2023-07-25T09:12:03.477Z,57.06
2023-07-25T09:13:03.525Z,58.45
2023-07-25T09:14:03.465Z,57.28
2023-07-25T09:15:03.453Z,58.28
2023-07-25T09:16:03.474Z,57.88
2023-07-25T09:17:03.468Z,58.58
2023-07-25T09:18:03.452Z,59.11
2023-07-25T09:19:03.381Z,58.61
2023-07-25T09:20:03.372Z,58.51
2023-07-25T09:21:03.361Z,58.81
2023-07-25T09:22:03.365Z,58.51
2023-07-25T09:23:03.329Z,58.51
2023-07-25T09:24:03.313Z,59.61
2023-07-25T09:25:03.314Z,59.81
2023-07-25T09:26:03.331Z,59.61
2023-07-25T09:27:03.308Z,58.81
2023-07-25T09:28:03.296Z,60.11
2023-07-25T09:29:03.261Z,61.27
2023-07-25T09:30:03.363Z,61.18
2023-07-25T09:31:03.264Z,59.48
2023-07-25T09:32:03.348Z,59.28
2023-07-25T09:33:03.244Z,58.38
2023-07-25T09:34:03.193Z,60.17
2023-07-25T09:35:03.169Z,58.28
2023-07-25T09:36:03.193Z,57.78
2023-07-25T09:37:03.146Z,59.48
2023-07-25T09:38:03.301Z,58.98
2023-07-25T09:39:03.113Z,59.68
2023-07-25T09:40:03.137Z,58.68
2023-07-25T09:41:03.108Z,58.08
2023-07-25T09:42:03.095Z,59.28
2023-07-25T09:43:03.064Z,58.68
2023-07-25T09:44:03.084Z,58.68
2023-07-25T09:45:03.057Z,59.78
2023-07-25T09:46:03.044Z,59.88
2023-07-25T09:47:03.016Z,59.65
2023-07-25T09:48:03.086Z,59.95
2023-07-25T09:49:03.000Z,59.55
2023-07-25T09:50:02.984Z,59.05
2023-07-25T09:51:02.957Z,58.45
2023-07-25T09:52:02.952Z,58.36
2023-07-25T09:53:02.942Z,59.65
2023-07-25T09:54:02.957Z,58.36
2023-07-25T09:55:02.928Z,57.26
2023-07-25T09:56:02.908Z,58.15
2023-07-25T09:57:02.881Z,58.06
2023-07-25T09:58:02.880Z,59.15
2023-07-25T09:59:07.227Z,59.58
2023-07-25T10:00:02.846Z,59.78
2023-07-25T10:01:02.888Z,58.38
2023-07-25T10:02:02.835Z,57.86
2023-07-25T10:03:02.841Z,57.65
2023-07-25T10:04:02.830Z,57.35
2023-07-25T10:05:02.782Z,58.75
2023-07-25T10:06:02.986Z,56.96
2023-07-25T10:07:02.762Z,55.76
2023-07-25T10:08:02.749Z,58.03
2023-07-25T10:09:02.746Z,58.83
2023-07-25T10:10:02.731Z,58.03
2023-07-25T10:11:02.721Z,58.40
2023-07-25T10:12:02.812Z,56.30
2023-07-25T10:13:02.686Z,56.01
2023-07-25T10:14:02.680Z,56.70
2023-07-25T10:15:02.667Z,57.07
2023-07-25T10:16:02.664Z,56.08
2023-07-25T10:17:02.670Z,55.88
2023-07-25T10:18:02.632Z,56.18
2023-07-25T10:19:02.601Z,56.05
2023-07-25T10:20:02.586Z,55.85
2023-07-25T10:21:02.565Z,56.55
2023-07-25T10:22:02.605Z,56.05
2023-07-25T10:23:02.539Z,55.05
2023-07-25T10:24:02.573Z,56.15
2023-07-25T10:25:02.527Z,55.16
2023-07-25T10:26:02.623Z,54.46
2023-07-25T10:27:02.545Z,57.05
2023-07-25T10:28:02.559Z,55.82
2023-07-25T10:29:02.483Z,56.52
2023-07-25T10:30:02.507Z,56.42
2023-07-25T10:31:02.481Z,56.02
2023-07-25T10:32:02.441Z,55.63
2023-07-25T10:33:02.481Z,55.23
2023-07-25T10:34:02.415Z,56.02
2023-07-25T10:35:02.392Z,55.95
2023-07-25T10:36:02.397Z,55.76
2023-07-25T10:37:02.355Z,56.15
2023-07-25T10:38:02.780Z,54.86
2023-07-25T10:39:02.338Z,56.38
2023-07-25T10:40:02.370Z,55.78
2023-07-25T10:41:02.319Z,56.57
2023-07-25T10:42:02.290Z,56.18
2023-07-25T10:43:07.191Z,55.68
2023-07-25T10:44:04.056Z,56.55
2023-07-25T10:45:02.274Z,56.55
2023-07-25T10:46:02.450Z,56.05
2023-07-25T10:47:02.297Z,55.85
2023-07-25T10:48:02.439Z,56.55
2023-07-25T10:49:02.225Z,57.75
2023-07-25T10:50:02.946Z,58.17
2023-07-25T10:51:02.199Z,59.06
2023-07-25T10:52:02.186Z,57.87
2023-07-25T10:53:02.148Z,58.47
2023-07-25T10:54:02.323Z,58.76
2023-07-25T10:55:02.165Z,58.67
2023-07-25T10:56:03.630Z,58.97
2023-07-25T10:57:02.106Z,57.47
2023-07-25T10:58:02.170Z,58.97
2023-07-25T10:59:02.094Z,57.97
2023-07-25T11:00:02.152Z,59.00
2023-07-25T11:01:02.085Z,59.79
2023-07-25T11:02:02.693Z,59.89
2023-07-25T11:03:02.099Z,58.50
2023-07-25T11:04:02.074Z,60.99
2023-07-25T11:05:02.005Z,61.32
2023-07-25T11:06:01.992Z,62.61
2023-07-25T11:07:02.000Z,63.71
2023-07-25T11:08:03.228Z,61.61
2023-07-25T11:09:01.976Z,62.41
2023-07-25T11:10:01.968Z,63.81
2023-07-25T11:11:01.928Z,61.15
2023-07-25T11:12:01.924Z,62.54
2023-07-25T11:13:01.939Z,63.54
2023-07-25T11:14:02.686Z,61.65
2023-07-25T11:15:01.886Z,64.24
2023-07-25T11:16:01.869Z,64.44
2023-07-25T11:17:01.886Z,65.04
2023-07-25T11:18:01.905Z,63.04
2023-07-25T11:19:01.867Z,62.87
2023-07-25T11:20:02.950Z,63.87
2023-07-25T11:21:01.800Z,61.47
2023-07-25T11:22:01.788Z,60.48
2023-07-25T11:23:01.790Z,61.00
2023-07-25T11:24:01.774Z,62.81
2023-07-25T11:25:01.746Z,62.10
2023-07-25T11:26:03.080Z,62.60
2023-07-25T11:27:01.725Z,65.20
2023-07-25T11:28:01.697Z,65.80
2023-07-25T11:29:01.709Z,64.40
2023-07-25T11:30:01.680Z,63.43
2023-07-25T11:31:01.726Z,65.63
2023-07-25T11:32:02.670Z,65.13
2023-07-25T11:33:01.656Z,67.33
2023-07-25T11:34:01.726Z,67.43
2023-07-25T11:35:01.614Z,67.53
2023-07-25T11:36:01.624Z,66.93
2023-07-25T11:37:01.608Z,68.13
2023-07-25T11:38:02.726Z,67.46
2023-07-25T11:39:01.564Z,67.86
2023-07-25T11:40:01.755Z,68.46
2023-07-25T11:41:01.555Z,69.36
2023-07-25T11:42:01.524Z,68.16
2023-07-25T11:43:01.506Z,66.06
2023-07-25T11:44:01.499Z,67.26
2023-07-25T11:45:01.504Z,69.76
2023-07-25T11:46:01.532Z,69.29
2023-07-25T11:47:01.458Z,66.19
2023-07-25T11:48:01.488Z,67.29
2023-07-25T11:49:01.417Z,67.99
2023-07-25T11:50:14.571Z,69.19
2023-07-25T11:51:02.410Z,67.89
2023-07-25T11:52:01.444Z,67.19
2023-07-25T11:53:01.375Z,66.69
2023-07-25T11:54:01.568Z,64.49
2023-07-25T11:55:01.370Z,64.59
2023-07-25T11:56:01.475Z,65.49
2023-07-25T11:57:01.343Z,66.09
2023-07-25T11:58:01.321Z,66.63
2023-07-25T11:59:01.319Z,66.52
2023-07-25T12:00:01.357Z,69.53
2023-07-25T12:01:01.272Z,69.23
2023-07-25T12:02:02.480Z,66.63
2023-07-25T12:03:01.310Z,65.72
2023-07-25T12:04:01.300Z,66.13
2023-07-25T12:05:01.246Z,67.22
2023-07-25T12:06:01.346Z,65.92
2023-07-25T12:07:01.204Z,67.43
2023-07-25T12:08:01.223Z,68.32
2023-07-25T12:09:01.179Z,68.93
2023-07-25T12:10:01.160Z,69.23
2023-07-25T12:11:01.152Z,66.72
2023-07-25T12:12:01.203Z,64.72
2023-07-25T12:13:01.145Z,64.92
2023-07-25T12:14:01.132Z,69.39
2023-07-25T12:15:01.107Z,70.69
2023-07-25T12:16:01.174Z,71.59
2023-07-25T12:17:01.109Z,71.59
2023-07-25T12:18:02.994Z,71.33
2023-07-25T12:19:01.053Z,70.43
2023-07-25T12:20:01.021Z,71.73
2023-07-25T12:21:01.016Z,72.63
2023-07-25T12:22:01.203Z,71.92
2023-07-25T12:23:01.032Z,72.92
2023-07-25T12:24:03.293Z,73.03
2023-07-25T12:25:00.958Z,72.42
2023-07-25T12:26:00.977Z,71.46
2023-07-25T12:27:00.945Z,72.06
2023-07-25T12:28:01.053Z,71.46
2023-07-25T12:29:00.904Z,73.56
2023-07-25T12:30:00.892Z,72.96
2023-07-25T12:31:00.860Z,72.86
2023-07-25T12:32:01.011Z,73.46
2023-07-25T12:33:00.919Z,73.76
2023-07-25T12:34:00.847Z,72.46
2023-07-25T12:35:00.813Z,73.36
2023-07-25T12:36:00.830Z,73.06
2023-07-25T12:37:00.837Z,71.76
2023-07-25T12:38:00.890Z,71.16
2023-07-25T12:39:00.794Z,72.46
2023-07-25T12:40:00.776Z,72.26
2023-07-25T12:41:00.779Z,71.26
2023-07-25T12:42:00.801Z,72.06
2023-07-25T12:43:00.724Z,73.26
2023-07-25T12:44:00.775Z,72.66
2023-07-25T12:45:00.695Z,72.46
2023-07-25T12:46:00.747Z,72.56
2023-07-25T12:47:00.659Z,71.50
2023-07-25T12:48:00.822Z,71.89
2023-07-25T12:49:00.658Z,70.50
2023-07-25T12:50:00.662Z,71.80
2023-07-25T12:51:00.635Z,70.39
2023-07-25T12:52:00.699Z,69.79